createdAt,value
2017-10-19T00:01:39.410Z,67.10
2017-10-19T00:04:07.633Z,66.80
2017-10-19T00:06:35.104Z,66.80
2017-10-19T00:09:02.607Z,66.80
2017-10-19T00:11:30.864Z,67.20
2017-10-19T00:13:58.348Z,67.10
2017-10-19T00:16:26.568Z,66.30
2017-10-19T00:18:54.053Z,66.30
2017-10-19T00:21:22.276Z,66.30
2017-10-19T00:23:49.759Z,66.30
2017-10-19T00:26:17.246Z,65.90
2017-10-19T00:28:44.741Z,66.00
2017-10-19T00:31:13.000Z,77.80
2017-10-19T00:33:41.249Z,78.60
2017-10-19T00:36:08.743Z,78.60
2017-10-19T00:38:36.974Z,79.70
2017-10-19T00:41:04.471Z,79.70
2017-10-19T00:43:32.711Z,78.20
2017-10-19T00:46:00.179Z,78.20
2017-10-19T00:48:27.670Z,78.30
2017-10-19T00:50:55.892Z,77.50
2017-10-19T00:53:23.395Z,77.50
2017-10-19T00:55:50.879Z,77.30
2017-10-19T00:58:18.379Z,77.40
2017-10-19T01:00:45.859Z,66.60
2017-10-19T01:03:13.327Z,76.60
2017-10-19T01:05:41.556Z,76.80
2017-10-19T01:08:09.036Z,76.80
2017-10-19T01:10:36.535Z,76.80
2017-10-19T01:13:04.785Z,76.30
2017-10-19T01:15:33.046Z,76.60
2017-10-19T01:18:00.539Z,76.70
2017-10-19T01:20:28.810Z,79.40
2017-10-19T01:22:56.308Z,79.30
2017-10-19T01:25:23.758Z,79.40
2017-10-19T01:27:51.259Z,79.80
2017-10-19T01:30:18.717Z,80.10
2017-10-19T01:32:46.219Z,79.00
2017-10-19T01:35:14.471Z,77.80
2017-10-19T01:37:41.994Z,77.80
2017-10-19T01:40:09.454Z,78.00
2017-10-19T01:42:36.947Z,77.70
2017-10-19T01:45:04.409Z,77.80
2017-10-19T01:47:31.911Z,77.30
2017-10-19T01:50:00.158Z,76.90
2017-10-19T01:52:28.420Z,77.10
2017-10-19T01:54:55.902Z,77.10
2017-10-19T01:57:24.150Z,78.00
2017-10-19T01:59:51.645Z,78.00
2017-10-19T02:02:19.115Z,78.20
2017-10-19T02:04:46.633Z,77.70
2017-10-19T05:35:43.764Z,77.80
2017-10-19T05:38:12.028Z,76.50
2017-10-19T05:40:40.260Z,76.90
2017-10-19T05:43:07.748Z,76.80
2017-10-19T05:45:35.217Z,84.80
2017-10-19T05:48:03.474Z,64.20
2017-10-19T05:50:30.946Z,64.20
2017-10-19T05:52:58.417Z,63.20
2017-10-19T05:55:26.672Z,62.30
2017-10-19T05:57:54.134Z,62.30
2017-10-19T06:00:21.611Z,62.30
2017-10-19T06:02:49.881Z,62.10
2017-10-19T06:05:18.130Z,62.10
2017-10-19T06:07:45.595Z,62.10
2017-10-19T06:10:13.079Z,62.60
2017-10-19T06:12:41.337Z,62.70
2017-10-19T06:15:08.822Z,62.60
2017-10-19T06:17:37.077Z,62.20
2017-10-19T06:20:04.548Z,62.20
2017-10-19T06:22:32.818Z,61.50
2017-10-19T06:25:01.058Z,61.50
2017-10-19T06:27:28.547Z,61.40
2017-10-19T06:29:56.000Z,61.60
2017-10-19T06:32:24.323Z,61.90
2017-10-19T06:34:51.803Z,61.90
2017-10-19T06:37:19.289Z,62.20
2017-10-19T06:39:46.785Z,62.20
2017-10-19T06:42:14.256Z,62.20
2017-10-19T06:44:41.750Z,62.20
2017-10-19T06:47:09.246Z,62.20
2017-10-19T06:49:37.508Z,62.80
2017-10-19T06:52:05.760Z,62.70
2017-10-19T06:54:33.286Z,62.70
2017-10-19T06:57:00.737Z,63.10
2017-10-19T06:59:28.217Z,62.90
2017-10-19T07:01:55.712Z,63.10
2017-10-19T07:04:23.200Z,64.40
2017-10-19T07:06:51.464Z,64.20
2017-10-19T07:09:19.688Z,64.30
2017-10-19T07:11:47.207Z,64.20
2017-10-19T07:14:15.457Z,64.30
2017-10-19T07:16:42.962Z,64.30
2017-10-19T07:19:10.447Z,65.00
2017-10-19T07:21:37.943Z,66.20
2017-10-19T07:24:05.438Z,66.50
2017-10-19T07:26:32.899Z,66.60
2017-10-19T07:29:00.412Z,66.40
2017-10-19T07:31:27.883Z,66.30
2017-10-19T07:33:55.367Z,66.30
2017-10-19T07:36:22.871Z,66.80
2017-10-19T07:38:50.384Z,66.30
2017-10-19T07:41:17.891Z,65.90
2017-10-19T07:43:45.395Z,65.90
2017-10-19T07:46:13.663Z,66.90
2017-10-19T07:48:43.306Z,67.40
2017-10-19T07:51:10.830Z,67.40
2017-10-19T07:53:39.088Z,66.80
2017-10-19T07:56:07.361Z,67.60
2017-10-19T07:58:34.834Z,67.60
2017-10-19T08:01:03.099Z,68.60
2017-10-19T08:03:30.589Z,68.60
2017-10-19T08:05:58.079Z,68.60
2017-10-19T08:08:25.570Z,69.00
2017-10-19T08:10:53.635Z,69.60
2017-10-19T08:13:21.135Z,69.10
2017-10-19T08:15:48.618Z,69.00
2017-10-19T08:18:16.139Z,69.00
2017-10-19T08:20:44.388Z,70.40
2017-10-19T08:23:11.872Z,70.40
2017-10-19T08:25:40.154Z,70.30
2017-10-19T08:28:07.648Z,70.30
2017-10-19T08:30:35.176Z,68.50
2017-10-19T08:33:02.680Z,68.70
2017-10-19T08:35:30.174Z,69.00
2017-10-19T08:37:57.670Z,69.40
2017-10-19T08:40:25.170Z,69.50
2017-10-19T08:42:52.650Z,70.10
2017-10-19T08:45:20.145Z,69.50
2017-10-19T08:47:47.641Z,69.50
2017-10-19T08:50:15.155Z,69.40
2017-10-19T08:52:42.651Z,70.40
2017-10-19T08:55:10.240Z,70.20
2017-10-19T08:57:37.744Z,70.30
2017-10-19T09:00:05.241Z,70.70
2017-10-19T09:02:32.751Z,71.40
2017-10-19T09:05:00.232Z,69.30
2017-10-19T09:07:27.731Z,69.60
2017-10-19T09:09:55.256Z,71.70
2017-10-19T09:12:22.734Z,70.30
2017-10-19T09:14:50.240Z,70.60
2017-10-19T09:17:18.475Z,68.90
2017-10-19T09:19:45.995Z,68.90
2017-10-19T09:22:14.209Z,66.80
2017-10-19T09:24:41.699Z,67.30
2017-10-19T09:27:09.183Z,67.50
2017-10-19T09:29:36.703Z,66.50
2017-10-19T09:32:04.179Z,66.30
2017-10-19T09:34:32.474Z,64.40
2017-10-19T09:36:59.969Z,64.40
2017-10-19T09:39:27.448Z,65.80
2017-10-19T09:41:54.952Z,65.20
2017-10-19T09:44:22.439Z,65.40
2017-10-19T09:46:49.951Z,62.90
2017-10-19T09:49:17.428Z,63.50
2017-10-19T09:51:44.976Z,63.60
2017-10-19T09:54:13.211Z,63.00
2017-10-19T09:56:40.741Z,62.90
2017-10-19T09:59:08.227Z,64.00
2017-10-19T10:01:35.718Z,65.70
2017-10-19T10:04:03.974Z,64.70
2017-10-19T10:06:31.450Z,64.70
2017-10-19T10:08:59.752Z,63.70
2017-10-19T10:11:27.228Z,63.70
2017-10-19T10:13:54.701Z,65.10
2017-10-19T10:16:22.204Z,63.80
2017-10-19T10:18:49.708Z,61.90
2017-10-19T10:21:17.182Z,62.10
2017-10-19T10:23:44.655Z,61.80
2017-10-19T10:26:12.208Z,62.00
2017-10-19T10:28:39.683Z,61.20
2017-10-19T10:31:08.678Z,61.20
2017-10-19T10:33:36.171Z,61.20
2017-10-19T10:36:03.682Z,61.10
2017-10-19T10:38:31.154Z,61.10
2017-10-19T10:40:59.406Z,60.20
2017-10-19T10:43:26.899Z,60.20
2017-10-19T10:45:54.380Z,60.50
2017-10-19T10:48:21.886Z,60.40
2017-10-19T10:50:49.364Z,61.00
2017-10-19T10:53:18.362Z,60.00
2017-10-19T10:55:45.839Z,60.00
2017-10-19T10:58:14.103Z,60.40
2017-10-19T11:00:41.584Z,60.50
2017-10-19T11:03:09.871Z,51.70
2017-10-19T11:05:37.363Z,51.40
2017-10-19T11:08:04.840Z,49.80
2017-10-19T11:10:32.360Z,48.90
2017-10-19T11:12:59.829Z,45.60
2017-10-19T11:15:27.353Z,44.90
2017-10-19T11:17:55.609Z,42.50
2017-10-19T11:20:23.115Z,42.50
2017-10-19T11:22:51.828Z,42.20
2017-10-19T11:25:19.301Z,42.10
2017-10-19T11:27:46.803Z,43.60
2017-10-19T11:30:14.298Z,42.50
2017-10-19T11:32:41.799Z,41.20
2017-10-19T11:35:10.054Z,39.10
2017-10-19T11:37:39.043Z,40.60
2017-10-19T11:40:06.539Z,40.60
2017-10-19T11:42:34.808Z,40.10
2017-10-19T11:45:03.082Z,39.60
2017-10-19T11:47:31.301Z,40.80
2017-10-19T11:49:58.799Z,40.70
2017-10-19T11:52:26.297Z,39.20
2017-10-19T11:54:54.545Z,39.70
2017-10-19T11:57:22.007Z,39.70
2017-10-19T11:59:49.479Z,39.70
2017-10-19T12:02:17.761Z,38.50
2017-10-19T12:04:45.228Z,38.30
2017-10-19T12:07:12.745Z,39.30
2017-10-19T12:09:40.211Z,39.30
2017-10-19T12:12:07.695Z,39.10
2017-10-19T12:14:35.178Z,38.70
2017-10-19T12:17:02.656Z,38.50
2017-10-19T12:19:30.146Z,37.50
2017-10-19T12:21:58.383Z,38.00
2017-10-19T12:24:25.879Z,37.80
2017-10-19T12:26:54.874Z,37.00
2017-10-19T12:29:22.399Z,37.00
2017-10-19T12:31:49.917Z,36.90
2017-10-19T12:34:18.156Z,37.00
2017-10-19T12:36:45.670Z,37.00
2017-10-19T12:39:13.166Z,36.60
2017-10-19T12:41:40.652Z,37.00
2017-10-19T12:44:08.919Z,36.20
2017-10-19T12:46:36.423Z,36.00
2017-10-19T12:49:03.910Z,35.40
2017-10-19T12:51:31.411Z,35.20
2017-10-19T12:53:59.664Z,35.20
2017-10-19T12:56:27.168Z,35.20
2017-10-19T12:58:54.641Z,35.20
2017-10-19T13:01:22.160Z,35.00
2017-10-19T13:03:50.419Z,34.60
2017-10-19T13:06:17.892Z,34.60
2017-10-19T13:08:46.169Z,34.30
2017-10-19T13:11:14.435Z,34.50
2017-10-19T13:13:41.950Z,34.50
2017-10-19T13:16:09.404Z,34.50
2017-10-19T13:18:36.896Z,34.60
2017-10-19T13:21:04.379Z,34.80
2017-10-19T13:23:32.624Z,34.80
2017-10-19T13:26:00.115Z,34.60
2017-10-19T13:28:27.591Z,34.50
2017-10-19T13:30:55.078Z,34.50
2017-10-19T13:33:22.548Z,34.80
2017-10-19T13:35:50.091Z,34.50
2017-10-19T13:38:17.552Z,34.70
2017-10-19T13:40:45.106Z,35.00
2017-10-19T13:43:12.556Z,34.50
2017-10-19T13:45:40.039Z,34.90
2017-10-19T13:48:07.539Z,34.80
2017-10-19T13:50:35.000Z,34.50
2017-10-19T13:53:03.250Z,34.70
2017-10-19T13:55:30.740Z,34.50
2017-10-19T13:57:59.028Z,34.40
2017-10-19T14:00:27.280Z,34.30
2017-10-19T14:02:54.756Z,34.10
2017-10-19T14:05:23.044Z,34.50
2017-10-19T14:07:50.536Z,34.50
2017-10-19T14:10:18.003Z,34.20
2017-10-19T14:12:45.524Z,34.20
2017-10-19T14:15:13.021Z,34.40
2017-10-19T14:17:40.517Z,34.50
2017-10-19T14:20:07.996Z,34.20
2017-10-19T14:22:35.484Z,33.80
2017-10-19T14:25:02.948Z,34.20
2017-10-19T14:27:30.450Z,33.80
2017-10-19T14:29:58.716Z,34.00
2017-10-19T14:32:27.715Z,34.30
2017-10-19T14:34:55.229Z,34.30
2017-10-19T14:37:22.721Z,34.40
2017-10-19T14:39:50.230Z,34.40
2017-10-19T14:42:17.684Z,34.20
2017-10-19T14:44:45.207Z,34.50
2017-10-19T14:47:12.689Z,34.30
2017-10-19T14:49:40.911Z,34.00
2017-10-19T14:52:08.420Z,34.00
2017-10-19T14:54:36.676Z,34.60
2017-10-19T14:57:04.188Z,34.40
2017-10-19T14:59:31.703Z,34.40
2017-10-19T15:01:59.159Z,34.50
2017-10-19T15:04:26.666Z,34.40
2017-10-19T15:06:54.147Z,34.30
2017-10-19T15:09:21.660Z,34.00
2017-10-19T15:11:49.129Z,34.20
2017-10-19T15:14:16.611Z,33.60
2017-10-19T15:16:44.114Z,33.50
2017-10-19T15:19:11.620Z,33.50
2017-10-19T15:21:39.116Z,33.70
2017-10-19T15:24:06.590Z,33.60
2017-10-19T15:26:34.879Z,34.10
2017-10-19T15:29:03.149Z,36.00
2017-10-19T15:31:31.371Z,36.50
2017-10-19T15:33:58.883Z,36.40
2017-10-19T15:36:27.168Z,36.70
2017-10-19T15:38:55.416Z,37.40
2017-10-19T15:41:22.913Z,37.20
2017-10-19T15:43:50.407Z,37.30
2017-10-19T15:46:17.879Z,38.20
2017-10-19T15:48:45.384Z,39.30
2017-10-19T15:51:15.247Z,40.40
2017-10-19T15:53:42.724Z,40.40
2017-10-19T15:56:10.767Z,50.40
2017-10-19T15:58:38.255Z,61.80
2017-10-19T16:01:06.518Z,65.70
2017-10-19T16:03:34.004Z,65.70
2017-10-19T16:06:01.492Z,66.50
2017-10-19T16:08:29.012Z,67.60
2017-10-19T16:10:58.010Z,69.50
2017-10-19T16:13:25.503Z,69.50
2017-10-19T16:15:53.017Z,69.00
2017-10-19T16:18:20.543Z,69.50
2017-10-19T16:20:48.015Z,69.60
2017-10-19T16:23:15.475Z,69.60
2017-10-19T16:25:42.969Z,69.60
2017-10-19T16:28:10.469Z,70.00
2017-10-19T16:30:37.975Z,70.00
2017-10-19T16:33:06.215Z,70.10
2017-10-19T16:35:33.720Z,70.10
2017-10-19T16:38:01.179Z,70.40
2017-10-19T16:40:29.467Z,70.90
2017-10-19T16:42:57.710Z,71.20
2017-10-19T16:45:25.178Z,71.20
2017-10-19T16:47:53.452Z,71.20
2017-10-19T16:50:20.928Z,71.20
2017-10-19T16:52:49.195Z,70.90
2017-10-19T16:55:17.432Z,70.50
2017-10-19T16:57:44.930Z,70.50
2017-10-19T17:00:12.408Z,70.80
2017-10-19T17:02:40.674Z,71.30
2017-10-19T17:05:08.951Z,71.40
2017-10-19T17:07:37.196Z,71.30
2017-10-19T17:10:04.703Z,71.30
2017-10-19T17:12:32.938Z,70.80
2017-10-19T17:15:00.513Z,70.80
2017-10-19T17:17:28.030Z,71.20
2017-10-19T17:19:55.546Z,70.90
2017-10-19T17:22:23.819Z,71.20
2017-10-19T17:24:52.060Z,71.60
2017-10-19T17:27:19.586Z,71.60
2017-10-19T17:29:47.055Z,71.30
2017-10-19T17:32:14.543Z,70.80
2017-10-19T17:34:42.053Z,70.60
2017-10-19T17:37:09.534Z,70.60
2017-10-19T17:39:37.026Z,70.70
2017-10-19T17:42:04.505Z,70.60
2017-10-19T17:44:32.779Z,70.30
2017-10-19T17:47:01.021Z,70.00
2017-10-19T17:49:28.524Z,70.00
2017-10-19T17:51:56.762Z,70.40
2017-10-19T17:54:24.258Z,70.40
2017-10-19T17:56:52.507Z,71.20
2017-10-19T17:59:20.011Z,71.20
2017-10-19T18:01:47.529Z,71.70
2017-10-19T18:04:14.998Z,71.90
2017-10-19T18:06:43.290Z,72.30
2017-10-19T18:09:11.545Z,71.60
2017-10-19T18:11:39.035Z,71.60
2017-10-19T18:14:06.541Z,71.40
2017-10-19T18:16:34.036Z,71.40
2017-10-19T18:19:02.282Z,73.00
2017-10-19T18:21:29.808Z,73.00
2017-10-19T18:23:57.277Z,73.50
2017-10-19T18:26:24.743Z,72.90
2017-10-19T18:28:52.321Z,72.10
2017-10-19T18:31:19.792Z,71.70
2017-10-19T18:33:47.319Z,71.60
2017-10-19T18:36:14.835Z,71.20
2017-10-19T18:38:43.064Z,70.70
2017-10-19T18:41:10.591Z,70.70
2017-10-19T18:43:38.060Z,71.10
2017-10-19T18:46:05.569Z,72.10
2017-10-19T18:48:33.068Z,72.30
2017-10-19T18:51:00.564Z,71.90
2017-10-19T18:53:28.048Z,71.70
2017-10-19T18:55:56.330Z,71.60
2017-10-19T18:58:24.570Z,71.50
2017-10-19T19:00:52.839Z,71.50
2017-10-19T19:03:20.299Z,71.90
2017-10-19T19:05:47.785Z,72.00
2017-10-19T19:08:15.290Z,70.90
2017-10-19T19:10:42.754Z,70.70
2017-10-19T19:13:10.279Z,71.10
2017-10-19T19:15:38.530Z,71.10
2017-10-19T19:18:06.023Z,71.10
2017-10-19T19:20:34.291Z,70.40
2017-10-19T19:23:02.527Z,70.30
2017-10-19T19:25:30.030Z,70.30
2017-10-19T19:27:58.289Z,70.00
2017-10-19T19:30:25.840Z,70.00
2017-10-19T19:32:53.336Z,70.20
2017-10-19T19:35:21.609Z,71.40
2017-10-19T19:37:49.856Z,72.30
2017-10-19T19:40:17.375Z,72.30
2017-10-19T19:42:44.860Z,72.20
2017-10-19T19:45:12.340Z,71.80
2017-10-19T19:47:39.834Z,72.20
2017-10-19T19:50:07.307Z,71.50
2017-10-19T19:52:34.795Z,71.00
2017-10-19T19:55:02.309Z,70.50
2017-10-19T19:57:30.114Z,70.50
2017-10-19T19:59:57.597Z,70.40
2017-10-19T20:02:25.060Z,71.70
2017-10-19T20:04:52.570Z,72.20
2017-10-19T20:07:20.073Z,71.90
2017-10-19T20:09:47.626Z,71.50
2017-10-19T20:12:15.122Z,71.10
2017-10-19T20:14:42.616Z,70.80
2017-10-19T20:17:10.123Z,70.80
2017-10-19T20:19:38.357Z,70.60
2017-10-19T20:22:05.803Z,70.60
2017-10-19T20:24:33.340Z,70.60
2017-10-19T20:27:00.813Z,70.60
2017-10-19T20:29:28.352Z,70.70
2017-10-19T20:31:56.895Z,70.00
2017-10-19T20:34:24.383Z,70.00
2017-10-19T20:36:52.640Z,70.10
2017-10-19T20:39:20.119Z,70.10
2017-10-19T20:41:48.398Z,69.50
2017-10-19T20:44:16.649Z,69.80
2017-10-19T20:46:44.141Z,69.80
2017-10-19T20:49:11.617Z,70.00
2017-10-19T20:51:39.124Z,70.10
2017-10-19T20:54:06.600Z,70.10
2017-10-19T20:56:34.851Z,71.50
2017-10-19T20:59:03.111Z,71.50
2017-10-19T21:01:30.590Z,71.50
2017-10-19T21:03:58.091Z,70.30
2017-10-19T21:06:25.571Z,70.10
2017-10-19T21:08:53.066Z,70.20
2017-10-19T21:11:20.535Z,70.60
2017-10-19T21:13:48.055Z,70.20
2017-10-19T21:16:15.528Z,69.80
2017-10-19T21:18:42.999Z,70.00
2017-10-19T21:21:10.522Z,69.90
2017-10-19T21:23:38.030Z,69.80
2017-10-19T21:26:05.514Z,69.80
2017-10-19T21:28:32.985Z,69.60
2017-10-19T21:31:00.480Z,69.80
2017-10-19T21:33:27.972Z,69.80
2017-10-19T21:35:55.472Z,69.50
2017-10-19T21:38:22.951Z,69.30
2017-10-19T21:40:50.464Z,69.50
2017-10-19T21:43:17.939Z,69.30
2017-10-19T21:45:45.439Z,69.40
2017-10-19T21:48:12.955Z,69.80
2017-10-19T21:50:41.222Z,70.30
2017-10-19T21:53:09.455Z,70.10
2017-10-19T21:55:36.977Z,70.10
2017-10-19T21:58:04.440Z,69.90
2017-10-19T22:00:31.953Z,70.20
2017-10-19T22:03:00.219Z,71.10
2017-10-19T22:05:27.719Z,71.00
2017-10-19T22:07:55.226Z,70.40
2017-10-19T22:10:22.736Z,69.80
2017-10-19T22:12:50.229Z,69.40
2017-10-19T22:15:17.691Z,69.60
2017-10-19T22:17:45.215Z,69.70
2017-10-19T22:20:12.696Z,69.50
2017-10-19T22:22:40.244Z,69.60
2017-10-19T22:25:07.720Z,69.50
2017-10-19T22:27:35.206Z,69.50
2017-10-19T22:30:02.695Z,69.20
2017-10-19T22:32:30.219Z,69.50
2017-10-19T22:34:57.694Z,69.50
2017-10-19T22:37:25.955Z,69.40
2017-10-19T22:39:53.455Z,69.40
2017-10-19T22:42:20.923Z,69.40
2017-10-19T22:44:48.416Z,69.30
2017-10-19T22:47:15.967Z,68.90
2017-10-19T22:49:43.479Z,68.70
2017-10-19T22:52:11.727Z,69.10
2017-10-19T22:54:39.230Z,69.10
2017-10-19T22:57:06.700Z,69.20
2017-10-19T22:59:34.188Z,69.20
2017-10-19T23:02:01.683Z,69.40
2017-10-19T23:04:29.160Z,70.30
2017-10-19T23:06:56.668Z,70.70
2017-10-19T23:09:24.142Z,70.80
2017-10-19T23:11:52.425Z,71.60
2017-10-19T23:14:20.659Z,70.80
2017-10-19T23:16:48.150Z,70.70
2017-10-19T23:19:15.638Z,70.10
2017-10-19T23:21:43.132Z,69.70
2017-10-19T23:24:10.635Z,69.30
2017-10-19T23:26:38.871Z,68.90
2017-10-19T23:29:06.349Z,68.90
2017-10-19T23:31:33.881Z,69.30
2017-10-19T23:34:01.380Z,69.10
2017-10-19T23:36:28.895Z,69.20
2017-10-19T23:38:56.359Z,69.60
2017-10-19T23:41:23.869Z,69.50
2017-10-19T23:43:52.119Z,69.70
2017-10-19T23:46:19.615Z,69.60
2017-10-19T23:48:47.842Z,70.00
2017-10-19T23:51:15.399Z,70.00
2017-10-19T23:53:42.877Z,70.70
2017-10-19T23:56:10.335Z,70.30
2017-10-19T23:58:37.850Z,69.90
